createdAt,value
2019-02-06T00:04:04.636Z,36.80
2019-02-06T00:10:07.067Z,39.90
2019-02-06T00:16:09.374Z,40.85
2019-02-06T00:22:11.660Z,38.75
2019-02-06T00:28:13.797Z,38.30
2019-02-06T00:34:16.010Z,41.10
2019-02-06T00:40:21.380Z,39.15
2019-02-06T00:46:23.586Z,39.35
2019-02-06T00:52:25.760Z,37.63
2019-02-06T00:58:28.519Z,36.90
2019-02-06T01:04:30.894Z,38.30
2019-02-06T01:10:33.177Z,39.03
2019-02-06T01:16:35.511Z,39.42
2019-02-06T01:22:38.172Z,40.00
2019-02-06T01:28:41.408Z,40.60
2019-02-06T01:34:43.833Z,36.68
2019-02-06T01:40:46.041Z,38.78
2019-02-06T01:46:48.231Z,37.63
2019-02-06T01:52:50.512Z,35.98
2019-02-06T01:58:54.171Z,36.88
2019-02-06T02:04:56.327Z,34.95
2019-02-06T02:10:58.490Z,33.70
2019-02-06T02:17:01.752Z,34.92
2019-02-06T02:23:04.187Z,33.75
2019-02-06T02:29:06.711Z,34.15
2019-02-06T02:35:09.144Z,32.67
2019-02-06T02:41:11.299Z,33.48
2019-02-06T02:47:13.562Z,33.80
2019-02-06T02:53:15.751Z,30.17
2019-02-06T02:59:18.782Z,33.23
2019-02-06T03:05:22.888Z,35.38
2019-02-06T03:11:25.210Z,33.92
2019-02-06T03:17:30.351Z,37.93
2019-02-06T03:23:32.882Z,40.20
2019-02-06T03:29:35.015Z,40.63
2019-02-06T03:35:37.286Z,40.38
2019-02-06T03:41:40.660Z,43.50
2019-02-06T03:47:44.238Z,41.53
2019-02-06T03:53:46.470Z,42.62
2019-02-06T03:59:48.679Z,41.45
2019-02-06T04:05:52.243Z,40.50
2019-02-06T04:11:54.544Z,37.65
2019-02-06T04:17:56.717Z,34.08
2019-02-06T04:23:58.849Z,32.45
2019-02-06T04:30:01.023Z,30.52
2019-02-06T04:36:03.839Z,31.07
2019-02-06T04:42:06.104Z,34.40
2019-02-06T04:48:08.704Z,32.88
2019-02-06T04:54:11.029Z,33.92
2019-02-06T05:00:19.172Z,37.73
2019-02-06T05:06:23.358Z,38.20
2019-02-06T05:12:25.519Z,37.33
2019-02-06T05:18:28.043Z,35.48
2019-02-06T05:24:30.239Z,33.55
2019-02-06T05:30:32.843Z,34.08
2019-02-06T05:36:34.981Z,37.80
2019-02-06T05:42:37.267Z,36.48
2019-02-06T05:48:39.761Z,34.13
2019-02-06T05:54:43.164Z,34.15
2019-02-06T06:00:46.767Z,34.55
2019-02-06T06:06:50.987Z,35.75
2019-02-06T06:12:54.299Z,34.92
2019-02-06T06:18:56.404Z,35.28
2019-02-06T06:24:58.820Z,35.48
2019-02-06T06:31:01.063Z,39.10
2019-02-06T06:37:03.366Z,39.18
2019-02-06T06:43:05.646Z,38.88
2019-02-06T06:49:08.105Z,37.55
2019-02-06T06:55:11.012Z,38.13
2019-02-06T07:01:13.572Z,36.35
2019-02-06T07:07:16.027Z,35.35
2019-02-06T07:13:18.835Z,37.85
2019-02-06T07:19:21.062Z,35.05
2019-02-06T07:25:24.879Z,37.40
2019-02-06T07:31:28.268Z,34.33
2019-02-06T07:37:30.474Z,37.25
2019-02-06T07:43:36.128Z,34.20
2019-02-06T07:49:38.426Z,36.08
2019-02-06T07:55:40.548Z,36.38
2019-02-06T08:01:42.730Z,36.60
2019-02-06T08:07:44.842Z,37.42
2019-02-06T08:13:47.411Z,36.03
2019-02-06T08:19:49.564Z,35.40
2019-02-06T08:25:51.949Z,35.23
2019-02-06T08:31:54.719Z,35.85
2019-02-06T08:37:58.356Z,35.05
2019-02-06T08:44:01.874Z,33.20
2019-02-06T08:50:06.503Z,35.83
2019-02-06T08:56:08.699Z,32.28
2019-02-06T09:02:10.918Z,30.88
2019-02-06T09:08:13.089Z,29.48
2019-02-06T09:14:16.808Z,30.57
2019-02-06T09:20:21.139Z,27.62
2019-02-06T09:26:23.910Z,27.22
2019-02-06T09:32:26.088Z,29.02
2019-02-06T09:38:28.348Z,31.17
2019-02-06T09:44:30.454Z,30.50
2019-02-06T09:50:34.548Z,32.30
2019-02-06T09:56:37.223Z,30.55
2019-02-06T10:02:39.337Z,32.48
2019-02-06T10:08:41.624Z,37.38
2019-02-06T10:14:45.856Z,32.88
2019-02-06T10:20:49.910Z,34.30
2019-02-06T10:26:52.023Z,33.00
2019-02-06T10:32:54.128Z,32.03
2019-02-06T10:38:56.331Z,29.60
2019-02-06T10:44:58.490Z,31.30
2019-02-06T10:51:00.670Z,29.72
2019-02-06T10:57:02.815Z,30.72
2019-02-06T11:03:05.046Z,32.33
2019-02-06T11:09:07.275Z,30.65
2019-02-06T11:15:09.924Z,30.65
2019-02-06T11:21:14.150Z,31.65
2019-02-06T11:27:16.597Z,32.73
2019-02-06T11:33:19.889Z,31.15
2019-02-06T11:39:23.439Z,29.72
2019-02-06T11:45:27.553Z,32.45
2019-02-06T11:51:29.877Z,32.40
2019-02-06T11:57:32.382Z,31.17
2019-02-06T12:03:36.728Z,30.43
2019-02-06T12:09:39.650Z,33.20
2019-02-06T12:15:43.922Z,33.28
2019-02-06T12:22:11.484Z,32.88
2019-02-06T12:28:15.543Z,34.20
2019-02-06T12:34:18.321Z,35.73
2019-02-06T12:40:22.092Z,34.88
2019-02-06T12:46:25.094Z,37.85
2019-02-06T12:52:27.393Z,36.25
2019-02-06T12:58:29.551Z,34.90
2019-02-06T13:04:31.798Z,36.60
2019-02-06T13:10:34.581Z,35.70
2019-02-06T13:16:36.786Z,36.05
2019-02-06T13:22:39.015Z,35.08
2019-02-06T13:28:41.131Z,33.73
2019-02-06T13:34:44.251Z,34.58
2019-02-06T13:40:46.509Z,32.23
2019-02-06T13:46:53.265Z,34.38
2019-02-06T13:52:52.839Z,33.58
2019-02-06T13:58:55.327Z,34.13
2019-02-06T14:05:00.297Z,36.00
2019-02-06T14:11:02.687Z,35.23
2019-02-06T14:17:06.010Z,34.58
2019-02-06T14:23:17.301Z,33.65
2019-02-06T14:29:55.979Z,34.33
2019-02-06T14:36:49.120Z,34.18
2019-02-06T14:43:12.709Z,32.58
2019-02-06T14:49:56.787Z,32.30
2019-02-06T14:56:37.017Z,32.63
2019-02-06T15:03:20.987Z,30.97
2019-02-06T15:10:02.926Z,33.60
2019-02-06T15:16:33.903Z,32.60
2019-02-06T15:23:16.306Z,31.62
2019-02-06T15:30:06.863Z,31.23
2019-02-06T15:36:35.519Z,31.68
2019-02-06T15:43:04.304Z,31.75
2019-02-06T15:49:21.942Z,31.62
2019-02-06T15:55:58.016Z,35.10
2019-02-06T16:02:26.406Z,35.55
2019-02-06T16:09:13.271Z,35.28
2019-02-06T16:15:45.223Z,33.63
2019-02-06T16:22:20.511Z,34.00
2019-02-06T16:28:39.061Z,36.85
2019-02-06T16:35:22.642Z,35.23
2019-02-06T16:42:05.915Z,32.67
2019-02-06T16:48:35.754Z,35.55
2019-02-06T17:02:04.408Z,37.80
2019-02-06T17:08:28.941Z,33.60
2019-02-06T17:15:08.788Z,32.80
2019-02-06T17:21:54.714Z,35.05
2019-02-06T17:28:35.115Z,34.53
2019-02-06T17:35:34.628Z,35.48
2019-02-06T17:41:47.359Z,34.20
2019-02-06T17:48:28.980Z,33.28
2019-02-06T17:55:19.742Z,32.30
2019-02-06T18:01:39.697Z,33.00
2019-02-06T18:07:41.923Z,33.58
2019-02-06T18:13:45.255Z,36.85
2019-02-06T18:19:47.426Z,35.30
2019-02-06T18:25:51.558Z,35.48
2019-02-06T18:31:55.049Z,36.30
2019-02-06T18:37:57.178Z,37.10
2019-02-06T18:43:59.874Z,34.70
2019-02-06T18:50:02.891Z,35.25
2019-02-06T18:56:05.283Z,36.80
2019-02-06T19:02:07.606Z,36.05
2019-02-06T19:08:10.115Z,40.43
2019-02-06T19:14:12.430Z,36.77
2019-02-06T19:20:15.504Z,39.95
2019-02-06T19:26:17.964Z,40.40
2019-02-06T19:32:20.145Z,39.45
2019-02-06T19:38:22.918Z,37.17
2019-02-06T19:44:25.194Z,38.42
2019-02-06T19:50:29.798Z,38.38
2019-02-06T19:56:33.202Z,38.02
2019-02-06T20:02:35.542Z,37.48
2019-02-06T20:08:37.931Z,40.43
2019-02-06T20:14:40.003Z,38.42
2019-02-06T20:20:46.995Z,36.80
2019-02-06T20:26:49.426Z,36.95
2019-02-06T20:32:52.657Z,35.13
2019-02-06T20:38:55.476Z,36.73
2019-02-06T20:44:59.443Z,34.25
2019-02-06T20:51:01.740Z,36.73
2019-02-06T20:57:12.382Z,41.45
2019-02-06T21:03:10.567Z,41.15
2019-02-06T21:09:16.064Z,42.45
2019-02-06T21:15:18.323Z,40.98
2019-02-06T21:21:21.177Z,40.95
2019-02-06T21:27:44.338Z,39.88
2019-02-06T21:33:46.959Z,38.80
2019-02-06T21:39:49.204Z,41.13
2019-02-06T21:45:52.520Z,39.30
2019-02-06T21:51:55.888Z,39.95
2019-02-06T21:57:59.828Z,39.30
2019-02-06T22:04:02.007Z,39.15
2019-02-06T22:10:05.232Z,39.98
2019-02-06T22:16:07.795Z,38.83
2019-02-06T22:22:11.196Z,36.38
2019-02-06T22:28:13.630Z,37.53
2019-02-06T22:34:15.803Z,35.70
2019-02-06T22:40:20.367Z,33.60
2019-02-06T22:46:23.759Z,30.70
2019-02-06T22:52:25.902Z,34.53
2019-02-06T22:58:38.269Z,36.28
2019-02-06T23:04:40.371Z,34.83
2019-02-06T23:10:42.495Z,35.48
2019-02-06T23:16:46.381Z,32.50
2019-02-06T23:22:48.492Z,28.95
2019-02-06T23:28:50.898Z,27.48
2019-02-06T23:34:54.509Z,28.02
2019-02-06T23:40:57.129Z,26.10
2019-02-06T23:46:59.229Z,26.87
2019-02-06T23:53:01.559Z,27.40
2019-02-06T23:59:03.860Z,27.52
